Time;durP1;ratioP1;P1;durP2;ratioP2;P2;SDS_P1;SDS_P2;PMS_P1;PMS_P2;Temp;Humidity;BMP_temperature;BMP_pressure;BME280_temperature;BME280_humidity;BME280_pressure;Samples;Min_cycle;Max_cycle;Signal;HPM_P1;HPM_P2
2022/02/22 00:01:36;;;;;;;5.25;2.22;;;;;;;4.12;56.35;97054.84;5108943;28;20031;-75
2022/02/22 00:04:02;;;;;;;6.93;2.67;;;;;;;4.12;56.30;97055.66;5109776;28;20035;-75
2022/02/22 00:06:27;;;;;;;6.93;3.03;;;;;;;4.11;56.00;97059.47;5090193;28;20063;-75
2022/02/22 00:08:53;;;;;;;6.13;2.28;;;;;;;4.13;55.85;97057.28;5073988;28;20123;-74
2022/02/22 00:11:18;;;;;;;7.07;2.40;;;;;;;4.12;56.50;97062.97;5090298;28;20024;-75
2022/02/22 00:13:44;;;;;;;5.68;2.50;;;;;;;4.11;56.84;97072.22;5109505;28;20019;-75
2022/02/22 00:16:09;;;;;;;6.15;2.47;;;;;;;4.12;56.36;97071.94;5109427;28;20039;-76
2022/02/22 00:18:34;;;;;;;6.93;3.08;;;;;;;4.12;56.98;97068.41;5109205;28;20023;-75
2022/02/22 00:21:00;;;;;;;7.78;3.08;;;;;;;4.10;57.25;97073.31;5090921;28;20040;-75
2022/02/22 00:23:25;;;;;;;7.55;2.70;;;;;;;4.11;57.38;97074.94;5108621;28;20069;-73
2022/02/22 00:25:51;;;;;;;7.30;2.72;;;;;;;4.13;56.61;97084.41;5108623;28;20028;-75
2022/02/22 00:28:20;;;;;;;5.47;2.15;;;;;;;4.14;56.86;97096.06;5109013;28;20028;-75
2022/02/22 00:30:47;;;;;;;8.30;2.78;;;;;;;4.13;57.12;97089.03;5090780;28;20023;-75
2022/02/22 00:33:13;;;;;;;6.00;2.45;;;;;;;4.16;56.55;97091.16;5113158;28;20023;-74
2022/02/22 00:35:38;;;;;;;8.30;2.60;;;;;;;4.16;56.59;97100.13;5112900;28;20019;-73
2022/02/22 00:38:03;;;;;;;7.53;2.50;;;;;;;4.13;57.24;97108.84;5112664;28;20029;-73
2022/02/22 00:40:29;;;;;;;6.60;2.47;;;;;;;4.14;57.42;97112.34;5112469;28;20031;-75
2022/02/22 00:42:54;;;;;;;7.22;2.42;;;;;;;4.12;56.88;97109.09;5108759;28;20115;-75
2022/02/22 00:45:19;;;;;;;5.93;2.50;;;;;;;4.10;56.93;97117.53;5112510;28;20020;-74
2022/02/22 00:47:45;;;;;;;11.05;3.45;;;;;;;4.12;57.09;97117.25;5112858;28;20427;-75
2022/02/22 00:50:10;;;;;;;6.70;2.60;;;;;;;4.12;57.51;97126.22;5112605;28;20102;-75
2022/02/22 00:52:36;;;;;;;6.80;2.90;;;;;;;4.13;56.84;97132.44;5112952;28;20050;-74
2022/02/22 00:55:02;;;;;;;6.10;2.45;;;;;;;4.08;57.64;97138.72;5112394;28;20092;-74
2022/02/22 00:57:27;;;;;;;6.00;2.35;;;;;;;4.07;56.76;97147.97;5111402;28;20028;-75
2022/02/22 00:59:53;;;;;;;11.00;2.67;;;;;;;4.03;57.89;97144.19;5112633;28;20444;-73
2022/02/22 01:02:18;;;;;;;4.55;2.08;;;;;;;4.02;57.13;97145.28;5112661;28;20038;-73
2022/02/22 01:04:43;;;;;;;5.13;2.33;;;;;;;4.01;57.44;97155.34;5112295;28;20100;-74
2022/02/22 01:07:16;;;;;;;6.65;2.22;;;;;;;3.99;57.33;97165.69;5112818;28;20019;-75
2022/02/22 01:09:45;;;;;;;7.47;2.70;;;;;;;3.97;58.15;97165.16;5112530;28;20027;-74
2022/02/22 01:12:12;;;;;;;8.20;2.42;;;;;;;3.97;57.35;97164.34;5111967;28;20115;-74
2022/02/22 01:14:37;;;;;;;4.97;2.20;;;;;;;3.98;57.92;97176.81;5112606;28;20065;-75
2022/02/22 01:17:03;;;;;;;7.15;2.17;;;;;;;3.97;58.08;97177.91;5112577;28;20059;-74
2022/02/22 01:19:29;;;;;;;5.60;2.20;;;;;;;3.97;57.73;97184.16;5112533;28;20032;-75
2022/02/22 01:21:54;;;;;;;7.75;2.65;;;;;;;4.00;58.39;97185.47;5112530;28;20024;-75
2022/02/22 01:24:19;;;;;;;4.95;2.15;;;;;;;3.99;58.25;97192.81;5111976;28;20020;-75
2022/02/22 01:26:45;;;;;;;6.30;2.35;;;;;;;4.00;57.64;97193.59;5112270;28;20026;-75
2022/02/22 01:29:10;;;;;;;5.97;2.28;;;;;;;3.99;58.55;97197.41;5111996;28;20379;-75
2022/02/22 01:31:36;;;;;;;6.40;2.35;;;;;;;3.97;58.18;97213.16;5111634;28;20024;-75
2022/02/22 01:34:01;;;;;;;7.35;2.10;;;;;;;3.92;58.85;97215.91;5112141;28;20024;-75
2022/02/22 01:36:27;;;;;;;3.85;1.60;;;;;;;3.90;59.16;97216.22;5093905;28;20020;-75
2022/02/22 01:38:53;;;;;;;5.18;2.08;;;;;;;3.91;59.26;97222.44;5111572;28;20466;-75
2022/02/22 01:41:23;;;;;;;4.22;1.90;;;;;;;3.87;59.75;97225.69;5111970;28;20032;-75
2022/02/22 01:43:49;;;;;;;2.80;1.90;;;;;;;3.83;60.41;97230.09;5110703;28;20030;-74
2022/02/22 01:46:15;;;;;;;4.05;1.70;;;;;;;3.81;60.86;97239.59;5111045;28;20016;-75
2022/02/22 01:48:41;;;;;;;3.90;1.50;;;;;;;3.77;62.05;97242.06;5112185;28;20020;-75
2022/02/22 01:51:06;;;;;;;4.30;1.40;;;;;;;3.73;62.49;97246.44;5093431;28;20483;-75
2022/02/22 01:53:35;;;;;;;4.20;1.73;;;;;;;3.68;63.33;97247.25;5111872;28;20053;-75
2022/02/22 01:56:03;;;;;;;2.60;1.42;;;;;;;3.64;64.26;97246.22;5112744;28;20026;-75
2022/02/22 01:58:29;;;;;;;2.42;1.70;;;;;;;3.60;64.74;97253.31;5095049;28;20035;-74
2022/02/22 02:00:55;;;;;;;2.92;1.63;;;;;;;3.53;64.55;97250.09;5112592;28;20020;-75
2022/02/22 02:03:20;;;;;;;4.57;2.00;;;;;;;3.50;65.60;97256.84;5113184;28;20038;-75
2022/02/22 02:05:46;;;;;;;4.20;1.70;;;;;;;3.48;65.51;97261.75;5112629;28;20407;-75
2022/02/22 02:08:12;;;;;;;2.45;1.20;;;;;;;3.45;66.10;97266.94;5092175;28;20084;-74
2022/02/22 02:10:38;;;;;;;6.82;2.75;;;;;;;3.42;67.40;97269.09;5111751;28;20035;-74
2022/02/22 02:13:03;;;;;;;3.47;1.45;;;;;;;3.42;67.08;97273.72;5112442;28;20463;-75
2022/02/22 02:15:29;;;;;;;2.05;1.27;;;;;;;3.38;67.64;97278.88;5112758;28;20035;-75
2022/02/22 02:17:55;;;;;;;3.03;1.63;;;;;;;3.37;67.64;97284.59;5112765;28;20491;-76
2022/02/22 02:20:21;;;;;;;3.50;1.65;;;;;;;3.35;68.08;97290.28;5112326;28;20054;-75
2022/02/22 02:22:47;;;;;;;3.15;1.73;;;;;;;3.35;69.25;97303.81;5112257;28;20479;-75
2022/02/22 02:25:13;;;;;;;4.40;2.08;;;;;;;3.31;70.94;97324.44;5111968;28;20039;-75
2022/02/22 02:27:38;;;;;;;3.50;1.55;;;;;;;3.20;71.82;97339.13;5111526;28;20055;-75
2022/02/22 02:30:06;;;;;;;2.40;1.10;;;;;;;2.95;73.38;97338.91;5111880;28;20100;-76
2022/02/22 02:32:31;;;;;;;4.43;1.63;;;;;;;2.71;73.54;97367.63;5112216;28;20024;-77
2022/02/22 02:34:57;;;;;;;1.60;1.02;;;;;;;2.45;74.00;97354.13;5112067;28;20028;-77
2022/02/22 02:37:22;;;;;;;2.55;1.30;;;;;;;2.28;74.78;97357.09;5111517;28;20032;-76
2022/02/22 02:39:48;;;;;;;1.88;1.10;;;;;;;2.13;75.28;97355.19;5111869;28;20051;-76
2022/02/22 02:42:16;;;;;;;0.80;0.60;;;;;;;1.99;76.59;97366.50;5111561;28;20035;-76
2022/02/22 02:44:45;;;;;;;1.70;1.17;;;;;;;1.90;78.03;97370.81;5111601;28;20123;-77
2022/02/22 02:47:12;;;;;;;1.23;0.80;;;;;;;1.83;78.10;97371.06;5111929;28;20457;-77
2022/02/22 02:49:38;;;;;;;1.63;0.63;;;;;;;1.80;77.60;97373.50;5112200;28;20023;-77
2022/02/22 02:52:05;;;;;;;1.30;0.90;;;;;;;1.75;78.02;97375.13;5093467;28;20134;-77
2022/02/22 02:54:30;;;;;;;1.00;0.90;;;;;;;1.74;79.20;97375.34;5111578;28;20036;-77
2022/02/22 02:56:55;;;;;;;2.58;1.08;;;;;;;1.73;79.21;97379.97;5111990;28;20052;-77
2022/02/22 02:59:21;;;;;;;2.58;1.05;;;;;;;1.75;79.11;97390.50;5111818;28;20051;-76
2022/02/22 03:01:46;;;;;;;2.13;1.20;;;;;;;1.76;78.45;97392.97;5111523;28;20032;-78
2022/02/22 03:04:12;;;;;;;1.48;1.20;;;;;;;1.75;79.22;97396.75;5112337;28;20039;-77
2022/02/22 03:06:38;;;;;;;3.45;1.88;;;;;;;1.75;78.72;97412.97;5111605;28;20051;-77
2022/02/22 03:09:04;;;;;;;3.53;2.30;;;;;;;1.77;78.56;97421.63;5111962;28;20029;-77
2022/02/22 03:11:29;;;;;;;3.95;2.20;;;;;;;1.77;79.86;97421.63;5110943;28;20046;-77
2022/02/22 03:13:55;;;;;;;2.97;1.90;;;;;;;1.78;79.94;97431.34;5111418;28;20027;-77
2022/02/22 03:16:21;;;;;;;5.68;1.90;;;;;;;1.77;79.82;97431.59;5111395;28;20023;-77
2022/02/22 03:18:47;;;;;;;3.67;1.63;;;;;;;1.78;79.33;97438.63;5111558;28;20368;-77
2022/02/22 03:21:12;;;;;;;1.83;1.48;;;;;;;1.78;79.68;97434.06;5111460;28;20073;-77
2022/02/22 03:23:38;;;;;;;3.97;2.00;;;;;;;1.76;79.70;97449.72;5111118;28;20035;-77
2022/02/22 03:26:03;;;;;;;2.63;1.45;;;;;;;1.70;79.66;97458.88;5110654;28;20499;-77
2022/02/22 03:28:31;;;;;;;3.28;1.58;;;;;;;1.66;79.69;97465.91;5111338;28;20438;-76
2022/02/22 03:30:57;;;;;;;3.78;1.60;;;;;;;1.63;79.78;97461.00;5111622;28;20030;-77
2022/02/22 03:33:22;;;;;;;1.90;1.20;;;;;;;1.55;79.14;97475.00;5111384;28;20031;-77
2022/02/22 03:35:48;;;;;;;4.00;1.60;;;;;;;1.52;79.68;97472.84;5111093;28;20051;-77
2022/02/22 03:38:14;;;;;;;2.45;1.40;;;;;;;1.46;79.15;97480.91;5111586;28;20023;-77
2022/02/22 03:40:39;;;;;;;5.05;1.70;;;;;;;1.41;79.25;97488.19;5111490;28;20028;-77
2022/02/22 03:43:05;;;;;;;2.90;1.05;;;;;;;1.39;79.18;97493.03;5111001;28;20088;-77
2022/02/22 03:45:31;;;;;;;1.95;1.20;;;;;;;1.40;78.80;97500.06;5110814;28;20064;-77
2022/02/22 03:47:57;;;;;;;3.45;1.70;;;;;;;1.39;79.07;97507.38;5111219;28;20024;-77
2022/02/22 03:50:23;;;;;;;4.57;2.00;;;;;;;1.40;78.90;97506.28;5110851;28;20035;-77
2022/02/22 03:52:50;;;;;;;5.18;2.72;;;;;;;1.39;78.33;97509.22;5110017;28;20032;-77
2022/02/22 03:55:15;;;;;;;5.90;3.10;;;;;;;1.39;78.19;97511.94;5110847;28;20023;-77
2022/02/22 03:57:41;;;;;;;1.58;1.38;;;;;;;1.45;78.18;97524.41;5110347;28;20111;-77
2022/02/22 04:00:18;;;;;;;3.47;1.42;;;;;;;1.49;77.89;97520.13;5110874;28;20026;-77
2022/02/22 04:02:44;;;;;;;2.20;1.10;;;;;;;1.55;78.41;97531.75;5110428;28;20024;-77
2022/02/22 04:05:10;;;;;;;4.40;2.50;;;;;;;1.58;78.17;97523.97;5110109;28;20488;-77
2022/02/22 04:07:36;;;;;;;3.53;2.28;;;;;;;1.64;77.82;97533.72;5110385;28;20070;-78
2022/02/22 04:10:03;;;;;;;2.95;1.50;;;;;;;1.67;77.93;97529.69;5110463;28;20055;-76
2022/02/22 04:12:29;;;;;;;3.55;1.60;;;;;;;1.71;78.19;97544.31;5110632;28;20028;-77
2022/02/22 04:14:54;;;;;;;4.60;1.80;;;;;;;1.72;77.65;97535.13;5110431;28;20533;-77
2022/02/22 04:17:19;;;;;;;4.57;1.60;;;;;;;1.69;77.44;97532.94;5110896;28;20471;-77
2022/02/22 04:19:45;;;;;;;4.90;1.13;;;;;;;1.71;77.14;97543.47;5110717;28;20030;-76
2022/02/22 04:22:11;;;;;;;4.28;1.25;;;;;;;1.68;77.14;97549.41;5110651;28;20032;-77
2022/02/22 04:24:37;;;;;;;2.85;1.30;;;;;;;1.68;77.50;97555.66;5110245;28;20015;-77
2022/02/22 04:27:04;;;;;;;5.35;1.75;;;;;;;1.68;76.68;97558.34;5091549;28;20392;-76
2022/02/22 04:29:29;;;;;;;5.20;1.50;;;;;;;1.70;77.14;97564.31;5110506;28;20111;-77
2022/02/22 04:31:54;;;;;;;10.88;2.40;;;;;;;1.74;76.66;97576.22;5110930;28;20127;-77
2022/02/22 04:34:20;;;;;;;7.68;2.50;;;;;;;1.83;76.59;97568.44;5110506;28;20086;-77
2022/02/22 04:36:45;;;;;;;8.00;2.60;;;;;;;1.85;76.75;97581.69;5092202;28;20019;-77
2022/02/22 04:39:11;;;;;;;5.85;1.77;;;;;;;1.86;76.80;97573.31;5110428;28;20019;-77
2022/02/22 04:41:36;;;;;;;4.82;1.80;;;;;;;1.88;76.27;97573.06;5110016;28;20130;-77
2022/02/22 04:44:02;;;;;;;3.05;1.60;;;;;;;1.90;76.40;97577.13;5110598;28;20031;-77
2022/02/22 04:46:28;;;;;;;11.10;3.65;;;;;;;1.87;76.40;97582.25;5109965;28;20023;-77
2022/02/22 04:48:53;;;;;;;14.38;4.15;;;;;;;1.91;75.78;97588.75;5110535;28;20524;-77
2022/02/22 04:51:18;;;;;;;18.48;6.32;;;;;;;1.86;76.19;97586.03;5110162;28;20594;-77
2022/02/22 04:53:44;;;;;;;9.65;3.03;;;;;;;1.83;75.90;97597.38;5110582;28;20017;-77
2022/02/22 04:56:09;;;;;;;8.52;2.33;;;;;;;1.84;75.40;97594.41;5110112;28;20136;-77
2022/02/22 04:58:35;;;;;;;23.40;5.85;;;;;;;1.87;75.61;97598.47;5110277;28;20027;-77
2022/02/22 05:01:00;;;;;;;6.70;2.67;;;;;;;1.85;75.85;97600.63;5110058;28;20107;-77
2022/02/22 05:03:25;;;;;;;6.97;2.28;;;;;;;1.86;75.28;97599.53;5110031;28;20379;-76
2022/02/22 05:05:53;;;;;;;6.57;1.92;;;;;;;1.86;75.89;97604.94;5109875;28;20046;-76
2022/02/22 05:08:19;;;;;;;15.82;5.82;;;;;;;1.86;75.63;97605.78;5110294;28;20395;-76
2022/02/22 05:10:44;;;;;;;9.20;2.70;;;;;;;1.88;75.90;97610.91;5109854;28;20024;-76
2022/02/22 05:13:10;;;;;;;5.13;1.75;;;;;;;1.91;75.46;97613.09;5090845;28;20085;-76
2022/02/22 05:15:35;;;;;;;3.97;1.40;;;;;;;1.91;75.07;97619.34;5109376;28;20044;-77
2022/02/22 05:18:01;;;;;;;5.53;1.60;;;;;;;1.91;75.47;97618.50;5112518;28;20027;-77
2022/02/22 05:20:27;;;;;;;3.78;1.10;;;;;;;1.92;75.53;97628.25;5113958;28;20502;-76
2022/02/22 05:22:53;;;;;;;3.05;1.38;;;;;;;1.93;75.21;97638.00;5095359;28;20063;-77
2022/02/22 05:25:18;;;;;;;4.85;1.40;;;;;;;1.95;75.39;97637.75;5113137;28;20067;-77
2022/02/22 05:27:44;;;;;;;2.35;1.13;;;;;;;2.01;75.21;97644.81;5094928;28;20085;-76
2022/02/22 05:30:12;;;;;;;2.63;1.25;;;;;;;1.99;75.04;97653.19;5113529;28;20452;-77
2022/02/22 05:32:38;;;;;;;2.60;1.10;;;;;;;1.95;74.53;97649.38;5109380;28;20035;-76
2022/02/22 05:35:05;;;;;;;4.22;1.40;;;;;;;1.98;74.83;97665.06;5111230;28;20012;-76
2022/02/22 05:37:30;;;;;;;3.42;1.10;;;;;;;2.01;74.50;97661.84;5112695;28;20019;-76
2022/02/22 05:39:56;;;;;;;3.22;1.40;;;;;;;2.00;74.86;97664.81;5113243;28;20428;-76
2022/02/22 05:42:23;;;;;;;3.30;1.75;;;;;;;1.98;74.69;97670.47;5113675;28;20020;-76
2022/02/22 05:44:49;;;;;;;2.53;1.20;;;;;;;1.99;74.77;97669.41;5112577;28;20034;-76
2022/02/22 05:47:15;;;;;;;3.58;1.13;;;;;;;2.01;74.26;97669.97;5113135;28;20020;-77
2022/02/22 05:49:40;;;;;;;3.42;2.28;;;;;;;2.03;74.76;97669.72;5113451;28;20012;-77
2022/02/22 05:52:06;;;;;;;4.35;1.80;;;;;;;2.07;74.41;97678.91;5112886;28;20020;-76
2022/02/22 05:54:32;;;;;;;5.68;2.28;;;;;;;2.10;73.79;97685.72;5112667;28;20107;-76
2022/02/22 05:56:57;;;;;;;9.85;3.38;;;;;;;2.11;73.71;97687.34;5093765;28;20044;-76
2022/02/22 05:59:23;;;;;;;6.82;3.13;;;;;;;2.13;73.52;97688.72;5112746;28;20471;-76
2022/02/22 06:01:48;;;;;;;9.70;2.92;;;;;;;2.16;73.39;97699.00;5093182;28;20162;-76
2022/02/22 06:04:13;;;;;;;4.88;2.72;;;;;;;2.19;73.33;97697.69;5112016;28;20023;-77
2022/02/22 06:06:40;;;;;;;5.40;3.03;;;;;;;2.21;73.81;97692.84;5112513;28;20020;-77
2022/02/22 06:09:06;;;;;;;9.88;3.90;;;;;;;2.24;72.97;97703.13;5112613;28;20020;-76
2022/02/22 06:11:32;;;;;;;6.97;3.70;;;;;;;2.27;73.00;97713.41;5112745;28;20027;-76
2022/02/22 06:13:58;;;;;;;8.18;3.50;;;;;;;2.29;73.35;97713.16;5112284;28;20027;-76
2022/02/22 06:16:23;;;;;;;10.27;3.70;;;;;;;2.32;72.93;97710.75;5112563;28;20384;-77
2022/02/22 06:18:49;;;;;;;14.13;6.38;;;;;;;2.34;72.78;97705.09;5112432;28;20481;-76
2022/02/22 06:21:15;;;;;;;6.13;3.28;;;;;;;2.40;73.29;97716.75;5112351;28;20019;-76
2022/02/22 06:23:40;;;;;;;7.07;2.40;;;;;;;2.42;73.44;97722.72;5112647;28;20116;-76
2022/02/22 06:26:05;;;;;;;6.30;2.80;;;;;;;2.42;73.16;97734.38;5110986;28;20360;-76
2022/02/22 06:28:32;;;;;;;4.22;2.22;;;;;;;2.43;73.15;97737.88;5098933;28;20028;-76
2022/02/22 06:30:57;;;;;;;6.15;3.13;;;;;;;2.45;73.00;97739.25;5090452;27;20111;-76
2022/02/22 06:33:23;;;;;;;8.13;2.65;;;;;;;2.55;72.61;97740.38;5079093;28;20257;-76
2022/02/22 06:35:48;;;;;;;8.18;3.40;;;;;;;2.60;72.99;97749.38;5104208;28;20149;-77
2022/02/22 06:38:14;;;;;;;10.20;3.53;;;;;;;2.62;72.49;97752.63;5106208;28;20019;-77
2022/02/22 06:40:39;;;;;;;8.38;3.00;;;;;;;2.66;72.79;97758.31;5107602;28;20550;-76
2022/02/22 06:43:05;;;;;;;7.32;3.30;;;;;;;2.70;72.91;97767.56;5105609;28;20024;-76
2022/02/22 06:45:30;;;;;;;9.75;4.15;;;;;;;2.70;72.03;97761.31;5107448;28;20028;-76
2022/02/22 06:47:55;;;;;;;16.25;5.38;;;;;;;2.74;72.50;97768.66;5105142;28;20032;-76
2022/02/22 06:50:23;;;;;;;13.00;4.30;;;;;;;2.78;72.23;97768.94;5105107;28;20019;-76
2022/02/22 06:52:48;;;;;;;14.52;4.32;;;;;;;2.77;72.24;97770.84;5108054;28;20027;-76
2022/02/22 06:55:15;;;;;;;9.27;3.15;;;;;;;2.73;73.12;97790.56;5109985;28;20520;-77
2022/02/22 06:57:41;;;;;;;9.02;2.60;;;;;;;2.71;72.88;97792.72;5111736;28;20058;-77
2022/02/22 07:00:10;;;;;;;38.13;10.20;;;;;;;2.74;72.86;97797.63;5111397;28;20403;-77
2022/02/22 07:02:39;;;;;;;27.45;7.32;;;;;;;2.74;73.39;97801.16;5111534;28;20496;-77
2022/02/22 07:05:06;;;;;;;11.10;3.13;;;;;;;2.82;72.61;97802.56;5110761;28;20028;-77
2022/02/22 07:07:32;;;;;;;10.98;3.60;;;;;;;2.89;73.21;97789.59;5110903;28;20089;-77
2022/02/22 07:09:57;;;;;;;6.72;2.92;;;;;;;2.88;73.11;97787.13;5111627;28;20435;-77
2022/02/22 07:12:23;;;;;;;7.30;3.08;;;;;;;2.89;72.86;97797.72;5111509;28;20027;-77
2022/02/22 07:14:48;;;;;;;9.48;4.10;;;;;;;2.91;73.43;97801.00;5105676;28;20077;-77
2022/02/22 07:17:14;;;;;;;9.30;4.05;;;;;;;2.91;73.14;97811.00;5099533;28;20114;-76
2022/02/22 07:19:39;;;;;;;6.82;3.08;;;;;;;2.97;73.50;97816.19;5103861;28;20024;-76
2022/02/22 07:22:05;;;;;;;4.55;2.10;;;;;;;3.02;73.27;97817.31;5109079;28;20031;-77
2022/02/22 07:24:30;;;;;;;4.97;2.33;;;;;;;3.02;73.22;97817.31;5104725;28;20551;-76
2022/02/22 07:26:56;;;;;;;6.53;2.90;;;;;;;3.01;72.88;97829.22;5107761;28;20023;-79
2022/02/22 07:29:22;;;;;;;7.38;2.70;;;;;;;3.01;73.44;97840.84;5109504;28;20023;-78
2022/02/22 07:31:47;;;;;;;6.80;2.15;;;;;;;3.01;73.04;97835.44;5106202;28;20054;-78
2022/02/22 07:34:13;;;;;;;5.43;2.00;;;;;;;3.02;73.52;97852.53;5110141;28;20036;-77
2022/02/22 07:36:39;;;;;;;3.17;1.52;;;;;;;3.08;73.47;97854.16;5108816;28;20102;-78
2022/02/22 07:39:05;;;;;;;6.13;1.70;;;;;;;3.16;73.43;97852.88;5109264;28;20031;-78
2022/02/22 07:41:32;;;;;;;6.22;1.90;;;;;;;3.14;73.75;97855.81;5109050;28;20531;-78
2022/02/22 07:43:58;;;;;;;7.72;2.65;;;;;;;3.14;73.29;97855.81;5091284;28;20035;-79
2022/02/22 07:46:23;;;;;;;6.63;2.75;;;;;;;3.15;73.91;97856.66;5104185;28;20037;-78
2022/02/22 07:48:49;;;;;;;7.05;2.42;;;;;;;3.25;73.83;97867.56;5109280;28;20027;-75
2022/02/22 07:51:16;;;;;;;5.07;1.95;;;;;;;3.38;73.87;97868.97;5108592;28;20027;-75
2022/02/22 07:53:49;;;;;;;3.85;1.90;;;;;;;3.52;74.18;97875.53;5108776;28;20589;-72
2022/02/22 07:56:15;;;;;;;3.10;1.80;;;;;;;3.61;74.13;97883.16;5105887;28;20066;-71
2022/02/22 07:58:41;;;;;;;2.90;1.27;;;;;;;3.62;73.81;97882.09;5107597;28;20098;-72
2022/02/22 08:01:07;;;;;;;2.58;1.15;;;;;;;3.58;73.27;97889.94;5107865;28;20164;-71
2022/02/22 08:03:34;;;;;;;3.95;1.30;;;;;;;3.56;73.09;97892.91;5091066;28;20027;-73
2022/02/22 08:05:59;;;;;;;3.78;1.55;;;;;;;3.57;73.45;97885.59;5107802;28;20020;-73
2022/02/22 08:08:25;;;;;;;7.63;2.90;;;;;;;3.54;73.38;97891.56;5105953;28;20019;-73
2022/02/22 08:10:51;;;;;;;7.80;3.38;;;;;;;3.49;73.57;97897.75;5090038;28;20027;-74
2022/02/22 08:13:17;;;;;;;7.35;3.50;;;;;;;3.46;72.72;97898.31;5101364;28;20391;-73
2022/02/22 08:15:42;;;;;;;7.22;3.35;;;;;;;3.47;73.74;97897.19;5096045;28;20046;-74
2022/02/22 08:18:08;;;;;;;6.10;3.78;;;;;;;3.52;73.01;97899.13;5106827;28;21680;-72
2022/02/22 08:20:34;;;;;;;8.05;3.75;;;;;;;3.57;73.86;97899.16;5107234;28;20494;-73
2022/02/22 08:23:00;;;;;;;7.28;3.28;;;;;;;3.61;72.72;97892.13;5108181;28;20050;-73
2022/02/22 08:25:26;;;;;;;3.33;1.80;;;;;;;3.63;72.13;97895.41;5107912;28;20091;-73
2022/02/22 08:27:52;;;;;;;5.60;2.85;;;;;;;3.73;72.31;97903.56;5107139;28;20513;-71
2022/02/22 08:30:17;;;;;;;7.45;3.38;;;;;;;3.79;72.03;97898.16;5108697;28;20057;-79
2022/02/22 08:32:42;;;;;;;10.05;3.70;;;;;;;3.92;72.54;97907.69;5088651;28;20468;-73
2022/02/22 08:35:08;;;;;;;9.57;3.08;;;;;;;3.98;71.72;97912.06;5107266;28;20028;-74
2022/02/22 08:37:34;;;;;;;5.28;2.17;;;;;;;4.04;71.78;97911.00;5107752;28;20038;-74
2022/02/22 08:40:00;;;;;;;11.68;4.38;;;;;;;4.13;71.48;97911.28;5107091;28;20766;-73
2022/02/22 08:42:26;;;;;;;16.85;6.22;;;;;;;4.22;71.39;97903.44;5107852;28;20028;-72
2022/02/22 08:44:53;;;;;;;20.63;6.97;;;;;;;4.32;71.33;97914.31;5108820;28;20024;-72
2022/02/22 08:47:18;;;;;;;11.60;4.65;;;;;;;4.43;71.92;97910.53;5107907;28;20020;-72
2022/02/22 08:49:46;;;;;;;11.38;3.83;;;;;;;4.43;70.27;97918.66;5108191;28;20035;-73
2022/02/22 08:52:11;;;;;;;7.45;3.20;;;;;;;4.41;70.19;97918.13;5108718;28;20461;-78
2022/02/22 08:54:37;;;;;;;7.30;3.33;;;;;;;4.46;69.95;97914.63;5111323;28;20027;-78
2022/02/22 08:57:02;;;;;;;16.80;6.20;;;;;;;4.57;69.93;97920.88;5110145;28;20036;-76
2022/02/22 08:59:28;;;;;;;24.58;7.70;;;;;;;4.65;69.68;97923.06;5111349;28;20024;-74
2022/02/22 09:01:53;;;;;;;18.80;5.80;;;;;;;4.70;69.12;97927.66;5110596;28;20035;-73
2022/02/22 09:04:18;;;;;;;28.10;7.95;;;;;;;4.70;69.26;97931.19;5110612;28;20406;-78
2022/02/22 09:06:44;;;;;;;19.88;7.68;;;;;;;4.68;68.61;97935.28;5110751;28;20028;-77
2022/02/22 09:09:09;;;;;;;17.52;6.60;;;;;;;4.69;68.59;97937.69;5112154;28;20015;-77
2022/02/22 09:11:34;;;;;;;11.65;4.68;;;;;;;4.67;67.41;97939.06;5115699;27;20031;-77
2022/02/22 09:14:00;;;;;;;15.80;6.90;;;;;;;4.67;67.18;97945.34;5112339;28;20047;-78
2022/02/22 09:16:25;;;;;;;25.63;8.60;;;;;;;4.72;67.51;97941.78;5109492;28;20077;-79
2022/02/22 09:18:53;;;;;;;28.80;10.32;;;;;;;4.81;67.28;97942.06;5112207;28;20030;-76
2022/02/22 09:21:19;;;;;;;11.77;5.28;;;;;;;4.91;67.12;97947.50;5110521;28;20028;-78
2022/02/22 09:23:44;;;;;;;28.02;9.07;;;;;;;5.00;67.31;97935.00;5112312;28;20034;-77
2022/02/22 09:26:10;;;;;;;16.13;5.85;;;;;;;5.07;66.91;97937.44;5111669;28;20361;-76
2022/02/22 09:28:36;;;;;;;17.13;5.72;;;;;;;5.18;66.68;97943.69;5112723;28;20069;-76
2022/02/22 09:31:01;;;;;;;10.68;3.15;;;;;;;5.20;65.78;97942.34;5093041;28;20024;-77
2022/02/22 09:33:26;;;;;;;7.20;2.90;;;;;;;5.18;65.83;97951.84;5108901;28;20077;-76
2022/02/22 09:35:52;;;;;;;7.07;2.83;;;;;;;5.15;66.32;97961.38;5111111;28;20027;-73
2022/02/22 09:38:18;;;;;;;7.32;3.13;;;;;;;5.10;66.42;97971.41;5110659;28;20024;-76
2022/02/22 09:40:44;;;;;;;7.38;2.75;;;;;;;5.00;67.59;97973.06;5111074;28;20115;-83
2022/02/22 09:43:12;;;;;;;6.13;2.80;;;;;;;4.88;67.70;97975.22;5109849;28;20059;-83
2022/02/22 09:45:38;;;;;;;6.50;2.67;;;;;;;4.83;68.83;97972.50;5109774;28;20024;-78
2022/02/22 09:48:04;;;;;;;4.63;2.42;;;;;;;4.78;69.89;97973.31;5110407;28;20048;-78
2022/02/22 09:50:32;;;;;;;6.32;3.03;;;;;;;4.82;69.28;97979.03;5111655;28;20737;-78
2022/02/22 09:52:57;;;;;;;6.63;2.75;;;;;;;4.92;70.20;97984.47;5110875;28;20036;-73
2022/02/22 09:55:23;;;;;;;6.50;2.85;;;;;;;5.06;70.40;97984.75;5110848;28;20455;-78
2022/02/22 09:57:51;;;;;;;6.65;2.33;;;;;;;5.05;70.11;97985.81;5110762;28;20536;-74
2022/02/22 10:00:25;;;;;;;5.28;2.60;;;;;;;5.10;70.41;97988.56;5108683;28;20114;-75
2022/02/22 10:02:51;;;;;;;5.70;2.50;;;;;;;5.15;70.61;97994.00;5094052;28;20024;-74
2022/02/22 10:05:27;;;;;;;4.55;2.15;;;;;;;5.18;70.44;97996.16;5093516;28;20042;-78
2022/02/22 10:08:02;;;;;;;4.13;1.90;;;;;;;5.16;69.87;97998.34;5109919;28;20028;-76
2022/02/22 10:10:37;;;;;;;4.18;2.15;;;;;;;5.16;69.98;98001.06;5110833;28;20425;-81
2022/02/22 10:13:07;;;;;;;3.92;2.03;;;;;;;5.32;69.82;97995.59;5111689;28;21484;-77
2022/02/22 10:15:44;;;;;;;3.67;2.20;;;;;;;5.58;69.48;97993.66;5111847;28;20457;-78
2022/02/22 10:18:11;;;;;;;3.85;2.00;;;;;;;5.72;69.03;97993.09;5092644;28;20387;-79
2022/02/22 10:20:38;;;;;;;5.82;2.40;;;;;;;5.76;69.23;97992.25;5109077;28;20448;-79
2022/02/22 10:23:06;;;;;;;4.93;2.20;;;;;;;5.81;68.47;97992.25;5110463;28;20070;-76
2022/02/22 10:25:31;;;;;;;4.68;2.40;;;;;;;5.84;68.47;97992.78;5109304;28;20020;-83
2022/02/22 10:28:00;;;;;;;6.00;2.20;;;;;;;5.87;67.97;97990.34;5106823;28;20126;-74
2022/02/22 10:30:39;;;;;;;5.25;2.50;;;;;;;5.91;67.70;97994.13;5110430;28;20096;-76
2022/02/22 10:33:18;;;;;;;17.08;6.10;;;;;;;5.95;67.90;97991.69;5110865;28;20016;-77
2022/02/22 10:35:48;;;;;;;6.35;2.53;;;;;;;5.96;67.16;97993.31;5108719;27;20116;-76
2022/02/22 10:38:17;;;;;;;3.85;2.00;;;;;;;5.97;67.77;98003.09;5109476;27;20173;-76
2022/02/22 10:40:50;;;;;;;14.90;5.35;;;;;;;5.94;67.55;98012.63;5107539;27;20028;-77
2022/02/22 10:43:36;;;;;;;4.30;2.10;;;;;;;5.78;66.42;98006.41;5107968;27;20066;-77
2022/02/22 10:46:05;;;;;;;2.63;1.70;;;;;;;5.64;66.74;98027.13;5106929;28;20020;-77
2022/02/22 10:48:43;;;;;;;5.32;2.10;;;;;;;5.49;67.00;98017.09;5106389;28;20038;-77
2022/02/22 10:51:14;;;;;;;2.65;1.40;;;;;;;5.35;68.03;98027.69;5107913;28;20027;-78
2022/02/22 10:53:45;;;;;;;2.70;1.90;;;;;;;5.35;69.01;98025.78;5111158;28;20023;-77
2022/02/22 10:56:12;;;;;;;3.30;1.77;;;;;;;5.43;69.36;98037.22;5105822;28;20115;-76
2022/02/22 10:58:40;;;;;;;5.68;1.90;;;;;;;5.35;69.76;98039.38;5112490;28;20475;-75
2022/02/22 11:01:10;;;;;;;3.22;1.60;;;;;;;5.11;69.93;98041.00;5094090;28;20027;-76
2022/02/22 11:03:36;;;;;;;1.92;1.00;;;;;;;4.77;71.11;98050.47;5112973;28;20106;-76
2022/02/22 11:06:02;;;;;;;3.00;1.30;;;;;;;4.48;72.17;98067.25;5112011;28;20130;-76
2022/02/22 11:08:31;;;;;;;5.20;1.73;;;;;;;4.27;73.19;98067.13;5112591;28;20496;-79
2022/02/22 11:11:09;;;;;;;4.00;1.80;;;;;;;4.07;73.95;98059.72;5112216;28;20084;-77
2022/02/22 11:13:35;;;;;;;5.38;2.47;;;;;;;4.09;74.52;98081.97;5112485;28;20110;-76
2022/02/22 11:16:09;;;;;;;10.07;4.30;;;;;;;4.05;75.32;98075.44;5111677;28;20058;-77
2022/02/22 11:18:44;;;;;;;2.83;1.90;;;;;;;4.04;75.72;98071.09;5112186;28;20077;-77
2022/02/22 11:21:10;;;;;;;4.32;2.78;;;;;;;4.11;75.11;98076.28;5111173;28;20506;-77
2022/02/22 11:23:36;;;;;;;4.40;3.28;;;;;;;4.16;76.29;98088.00;5112374;28;20059;-77
2022/02/22 11:26:14;;;;;;;4.72;2.75;;;;;;;4.28;75.70;98085.06;5111692;28;20384;-77
2022/02/22 11:28:46;;;;;;;4.80;2.58;;;;;;;4.31;75.38;98092.69;5112283;28;20047;-76
2022/02/22 11:31:14;;;;;;;6.10;2.90;;;;;;;4.29;75.24;98094.84;5111713;28;20035;-76
2022/02/22 11:33:53;;;;;;;8.10;3.22;;;;;;;4.21;75.62;98098.06;5112272;28;20024;-77
2022/02/22 11:36:26;;;;;;;6.85;2.58;;;;;;;4.11;75.15;98093.41;5112341;28;20084;-77
2022/02/22 11:38:53;;;;;;;9.63;2.63;;;;;;;3.93;74.78;98107.38;5112165;28;20426;-77